sensor_id;sensor_type;location;lat;lon;timestamp;temperature;humidity
45537;DHT22;31262;51.978;5.924;2022-12-18T00:01:31;5.50;55.40
45537;DHT22;31262;51.978;5.924;2022-12-18T00:03:58;5.40;55.40
45537;DHT22;31262;51.978;5.924;2022-12-18T00:06:24;5.40;55.30
45537;DHT22;31262;51.978;5.924;2022-12-18T00:08:50;5.30;55.30
45537;DHT22;31262;51.978;5.924;2022-12-18T00:11:17;5.30;55.40
45537;DHT22;31262;51.978;5.924;2022-12-18T00:13:43;5.20;55.50
45537;DHT22;31262;51.978;5.924;2022-12-18T00:16:09;5.10;55.60
45537;DHT22;31262;51.978;5.924;2022-12-18T00:18:35;5.00;55.70
45537;DHT22;31262;51.978;5.924;2022-12-18T00:21:01;5.00;55.70
45537;DHT22;31262;51.978;5.924;2022-12-18T00:23:27;4.90;55.60
45537;DHT22;31262;51.978;5.924;2022-12-18T00:25:53;4.90;55.40
45537;DHT22;31262;51.978;5.924;2022-12-18T00:28:18;4.80;55.50
45537;DHT22;31262;51.978;5.924;2022-12-18T00:30:44;4.80;55.50
45537;DHT22;31262;51.978;5.924;2022-12-18T00:33:09;4.70;55.40
45537;DHT22;31262;51.978;5.924;2022-12-18T00:35:35;4.70;55.60
45537;DHT22;31262;51.978;5.924;2022-12-18T00:38:00;4.80;55.70
45537;DHT22;31262;51.978;5.924;2022-12-18T00:40:26;4.60;55.80
45537;DHT22;31262;51.978;5.924;2022-12-18T00:42:51;4.70;55.80
45537;DHT22;31262;51.978;5.924;2022-12-18T00:45:26;4.50;55.90
45537;DHT22;31262;51.978;5.924;2022-12-18T00:47:52;4.60;55.80
45537;DHT22;31262;51.978;5.924;2022-12-18T00:50:18;4.60;55.90
45537;DHT22;31262;51.978;5.924;2022-12-18T00:52:43;4.40;55.90
45537;DHT22;31262;51.978;5.924;2022-12-18T00:55:09;4.40;56.00
45537;DHT22;31262;51.978;5.924;2022-12-18T00:57:35;4.30;55.90
45537;DHT22;31262;51.978;5.924;2022-12-18T01:00:01;4.30;56.00
45537;DHT22;31262;51.978;5.924;2022-12-18T01:02:26;4.20;56.20
45537;DHT22;31262;51.978;5.924;2022-12-18T01:04:52;4.20;56.30
45537;DHT22;31262;51.978;5.924;2022-12-18T01:07:17;4.20;56.50
45537;DHT22;31262;51.978;5.924;2022-12-18T01:09:43;4.10;56.40
45537;DHT22;31262;51.978;5.924;2022-12-18T01:12:08;4.20;56.50
45537;DHT22;31262;51.978;5.924;2022-12-18T01:14:34;4.00;56.50
45537;DHT22;31262;51.978;5.924;2022-12-18T01:16:59;3.90;56.50
45537;DHT22;31262;51.978;5.924;2022-12-18T01:19:27;3.90;56.60
45537;DHT22;31262;51.978;5.924;2022-12-18T01:21:53;4.00;56.60
45537;DHT22;31262;51.978;5.924;2022-12-18T01:24:19;3.90;56.70
45537;DHT22;31262;51.978;5.924;2022-12-18T01:26:44;3.90;56.80
45537;DHT22;31262;51.978;5.924;2022-12-18T01:29:09;3.80;56.80
45537;DHT22;31262;51.978;5.924;2022-12-18T01:31:35;3.80;56.90
45537;DHT22;31262;51.978;5.924;2022-12-18T01:34:00;3.80;56.80
45537;DHT22;31262;51.978;5.924;2022-12-18T01:36:27;3.80;56.80
45537;DHT22;31262;51.978;5.924;2022-12-18T01:38:54;3.70;56.80
45537;DHT22;31262;51.978;5.924;2022-12-18T01:41:21;3.70;56.50
45537;DHT22;31262;51.978;5.924;2022-12-18T01:46:12;3.60;56.90
45537;DHT22;31262;51.978;5.924;2022-12-18T01:48:38;3.60;57.00
45537;DHT22;31262;51.978;5.924;2022-12-18T01:51:04;3.50;57.00
45537;DHT22;31262;51.978;5.924;2022-12-18T01:53:30;3.50;57.20
45537;DHT22;31262;51.978;5.924;2022-12-18T01:55:56;3.50;57.30
45537;DHT22;31262;51.978;5.924;2022-12-18T01:58:23;3.50;57.30
45537;DHT22;31262;51.978;5.924;2022-12-18T02:00:50;3.40;57.30
45537;DHT22;31262;51.978;5.924;2022-12-18T02:03:15;3.40;57.30
45537;DHT22;31262;51.978;5.924;2022-12-18T02:05:45;3.40;57.20
45537;DHT22;31262;51.978;5.924;2022-12-18T02:11:04;3.40;57.30
45537;DHT22;31262;51.978;5.924;2022-12-18T02:18:33;3.30;57.50
45537;DHT22;31262;51.978;5.924;2022-12-18T02:26:19;3.30;58.30
45537;DHT22;31262;51.978;5.924;2022-12-18T02:28:46;3.80;58.30
45537;DHT22;31262;51.978;5.924;2022-12-18T02:31:15;4.10;56.90
45537;DHT22;31262;51.978;5.924;2022-12-18T02:33:43;3.90;56.70
45537;DHT22;31262;51.978;5.924;2022-12-18T02:36:10;3.70;56.70
45537;DHT22;31262;51.978;5.924;2022-12-18T02:38:36;3.60;56.90
45537;DHT22;31262;51.978;5.924;2022-12-18T02:41:02;3.50;57.00
45537;DHT22;31262;51.978;5.924;2022-12-18T02:43:27;3.40;57.00
45537;DHT22;31262;51.978;5.924;2022-12-18T02:45:58;3.40;57.00
45537;DHT22;31262;51.978;5.924;2022-12-18T02:48:26;3.30;57.00
45537;DHT22;31262;51.978;5.924;2022-12-18T02:53:38;3.20;57.20
45537;DHT22;31262;51.978;5.924;2022-12-18T02:56:26;3.20;57.40
45537;DHT22;31262;51.978;5.924;2022-12-18T02:59:05;3.00;57.30
45537;DHT22;31262;51.978;5.924;2022-12-18T03:01:51;3.00;57.50
45537;DHT22;31262;51.978;5.924;2022-12-18T03:04:23;2.90;57.60
45537;DHT22;31262;51.978;5.924;2022-12-18T03:06:53;2.90;57.80
45537;DHT22;31262;51.978;5.924;2022-12-18T03:09:26;2.80;57.80
45537;DHT22;31262;51.978;5.924;2022-12-18T03:11:54;2.90;58.00
45537;DHT22;31262;51.978;5.924;2022-12-18T03:14:39;2.80;58.00
45537;DHT22;31262;51.978;5.924;2022-12-18T03:17:07;2.80;58.10
45537;DHT22;31262;51.978;5.924;2022-12-18T03:19:37;2.80;58.10
45537;DHT22;31262;51.978;5.924;2022-12-18T03:22:04;2.80;58.10
45537;DHT22;31262;51.978;5.924;2022-12-18T03:24:31;2.90;58.20
45537;DHT22;31262;51.978;5.924;2022-12-18T03:26:58;2.70;58.10
45537;DHT22;31262;51.978;5.924;2022-12-18T03:29:27;2.70;58.20
45537;DHT22;31262;51.978;5.924;2022-12-18T03:31:55;2.70;58.10
45537;DHT22;31262;51.978;5.924;2022-12-18T03:34:23;2.60;58.60
45537;DHT22;31262;51.978;5.924;2022-12-18T03:36:49;2.60;58.00
45537;DHT22;31262;51.978;5.924;2022-12-18T03:39:15;2.60;58.20
45537;DHT22;31262;51.978;5.924;2022-12-18T03:41:43;2.60;58.10
45537;DHT22;31262;51.978;5.924;2022-12-18T03:46:41;2.60;58.20
45537;DHT22;31262;51.978;5.924;2022-12-18T03:49:11;2.50;58.20
45537;DHT22;31262;51.978;5.924;2022-12-18T03:52:01;2.50;58.20
45537;DHT22;31262;51.978;5.924;2022-12-18T03:54:26;2.50;58.20
45537;DHT22;31262;51.978;5.924;2022-12-18T03:56:57;2.50;58.20
45537;DHT22;31262;51.978;5.924;2022-12-18T03:59:23;2.50;58.10
45537;DHT22;31262;51.978;5.924;2022-12-18T04:01:49;2.50;58.20
45537;DHT22;31262;51.978;5.924;2022-12-18T04:04:16;2.50;58.00
45537;DHT22;31262;51.978;5.924;2022-12-18T04:06:42;2.50;58.00
45537;DHT22;31262;51.978;5.924;2022-12-18T04:09:09;2.50;58.00
45537;DHT22;31262;51.978;5.924;2022-12-18T04:11:34;2.50;58.20
45537;DHT22;31262;51.978;5.924;2022-12-18T04:14:00;2.60;58.20
45537;DHT22;31262;51.978;5.924;2022-12-18T04:16:26;2.50;58.20
45537;DHT22;31262;51.978;5.924;2022-12-18T04:18:52;2.50;58.30
45537;DHT22;31262;51.978;5.924;2022-12-18T04:21:17;2.40;58.30
45537;DHT22;31262;51.978;5.924;2022-12-18T04:23:43;2.40;58.40
45537;DHT22;31262;51.978;5.924;2022-12-18T04:26:08;2.40;58.40
45537;DHT22;31262;51.978;5.924;2022-12-18T04:28:34;2.40;58.40
45537;DHT22;31262;51.978;5.924;2022-12-18T04:30:59;2.30;58.50
45537;DHT22;31262;51.978;5.924;2022-12-18T04:33:25;2.40;58.50
45537;DHT22;31262;51.978;5.924;2022-12-18T04:35:50;2.40;58.30
45537;DHT22;31262;51.978;5.924;2022-12-18T04:38:16;2.40;58.30
45537;DHT22;31262;51.978;5.924;2022-12-18T04:40:41;2.40;58.30
45537;DHT22;31262;51.978;5.924;2022-12-18T04:43:07;2.30;58.30
45537;DHT22;31262;51.978;5.924;2022-12-18T04:45:33;2.50;58.40
45537;DHT22;31262;51.978;5.924;2022-12-18T04:47:58;2.40;58.30
45537;DHT22;31262;51.978;5.924;2022-12-18T04:50:24;2.40;58.40
45537;DHT22;31262;51.978;5.924;2022-12-18T04:52:49;2.30;58.30
45537;DHT22;31262;51.978;5.924;2022-12-18T04:55:15;2.40;58.50
45537;DHT22;31262;51.978;5.924;2022-12-18T04:57:40;2.30;58.30
45537;DHT22;31262;51.978;5.924;2022-12-18T05:00:06;2.30;58.50
45537;DHT22;31262;51.978;5.924;2022-12-18T05:02:32;2.30;58.50
45537;DHT22;31262;51.978;5.924;2022-12-18T05:04:57;2.20;58.40
45537;DHT22;31262;51.978;5.924;2022-12-18T05:07:23;2.20;58.50
45537;DHT22;31262;51.978;5.924;2022-12-18T05:09:49;2.20;58.60
45537;DHT22;31262;51.978;5.924;2022-12-18T05:12:14;2.20;58.60
45537;DHT22;31262;51.978;5.924;2022-12-18T05:14:39;2.10;58.60
45537;DHT22;31262;51.978;5.924;2022-12-18T05:17:05;2.10;58.60
45537;DHT22;31262;51.978;5.924;2022-12-18T05:19:31;2.10;58.70
45537;DHT22;31262;51.978;5.924;2022-12-18T05:21:56;2.10;58.70
45537;DHT22;31262;51.978;5.924;2022-12-18T05:24:22;2.00;58.60
45537;DHT22;31262;51.978;5.924;2022-12-18T05:26:48;2.00;58.80
45537;DHT22;31262;51.978;5.924;2022-12-18T05:29:13;1.90;58.80
45537;DHT22;31262;51.978;5.924;2022-12-18T05:31:39;2.00;58.90
45537;DHT22;31262;51.978;5.924;2022-12-18T05:34:05;2.00;58.90
45537;DHT22;31262;51.978;5.924;2022-12-18T05:36:30;2.10;59.00
45537;DHT22;31262;51.978;5.924;2022-12-18T05:38:56;2.00;58.90
45537;DHT22;31262;51.978;5.924;2022-12-18T05:41:21;1.90;58.80
45537;DHT22;31262;51.978;5.924;2022-12-18T05:43:47;2.00;59.00
45537;DHT22;31262;51.978;5.924;2022-12-18T05:46:13;2.00;59.00
45537;DHT22;31262;51.978;5.924;2022-12-18T05:48:40;1.90;59.00
45537;DHT22;31262;51.978;5.924;2022-12-18T05:51:09;1.90;59.60
45537;DHT22;31262;51.978;5.924;2022-12-18T05:53:36;1.90;59.00
45537;DHT22;31262;51.978;5.924;2022-12-18T05:56:02;1.90;59.00
45537;DHT22;31262;51.978;5.924;2022-12-18T05:58:28;1.80;59.00
45537;DHT22;31262;51.978;5.924;2022-12-18T06:00:54;1.80;59.10
45537;DHT22;31262;51.978;5.924;2022-12-18T06:03:19;1.90;59.20
45537;DHT22;31262;51.978;5.924;2022-12-18T06:05:45;1.90;59.20
45537;DHT22;31262;51.978;5.924;2022-12-18T06:08:11;1.90;59.10
45537;DHT22;31262;51.978;5.924;2022-12-18T06:10:37;1.90;59.00
45537;DHT22;31262;51.978;5.924;2022-12-18T06:13:02;1.90;59.10
45537;DHT22;31262;51.978;5.924;2022-12-18T06:15:28;1.90;59.10
45537;DHT22;31262;51.978;5.924;2022-12-18T06:17:53;1.90;59.20
45537;DHT22;31262;51.978;5.924;2022-12-18T06:20:19;1.90;59.20
45537;DHT22;31262;51.978;5.924;2022-12-18T06:22:45;1.90;59.20
45537;DHT22;31262;51.978;5.924;2022-12-18T06:25:10;1.90;59.30
45537;DHT22;31262;51.978;5.924;2022-12-18T06:27:36;1.90;59.30
45537;DHT22;31262;51.978;5.924;2022-12-18T06:30:02;1.90;59.20
45537;DHT22;31262;51.978;5.924;2022-12-18T06:32:28;1.90;59.20
45537;DHT22;31262;51.978;5.924;2022-12-18T06:34:53;1.90;59.20
45537;DHT22;31262;51.978;5.924;2022-12-18T06:37:20;2.00;59.30
45537;DHT22;31262;51.978;5.924;2022-12-18T06:39:46;1.90;59.20
45537;DHT22;31262;51.978;5.924;2022-12-18T06:42:12;1.90;59.20
45537;DHT22;31262;51.978;5.924;2022-12-18T06:44:37;1.90;59.10
45537;DHT22;31262;51.978;5.924;2022-12-18T06:47:03;1.90;59.10
45537;DHT22;31262;51.978;5.924;2022-12-18T06:49:28;1.80;59.20
45537;DHT22;31262;51.978;5.924;2022-12-18T06:51:54;1.90;59.20
45537;DHT22;31262;51.978;5.924;2022-12-18T06:54:19;1.90;59.20
45537;DHT22;31262;51.978;5.924;2022-12-18T06:56:45;1.80;59.20
45537;DHT22;31262;51.978;5.924;2022-12-18T06:59:12;1.80;59.30
45537;DHT22;31262;51.978;5.924;2022-12-18T07:01:37;1.80;59.30
45537;DHT22;31262;51.978;5.924;2022-12-18T07:04:03;1.80;59.20
45537;DHT22;31262;51.978;5.924;2022-12-18T07:06:29;1.90;59.20
45537;DHT22;31262;51.978;5.924;2022-12-18T07:08:54;2.00;59.30
45537;DHT22;31262;51.978;5.924;2022-12-18T07:11:21;1.80;59.20
45537;DHT22;31262;51.978;5.924;2022-12-18T07:13:46;1.80;59.10
45537;DHT22;31262;51.978;5.924;2022-12-18T07:16:13;1.70;59.30
45537;DHT22;31262;51.978;5.924;2022-12-18T07:18:39;1.80;59.50
45537;DHT22;31262;51.978;5.924;2022-12-18T07:21:05;1.80;59.50
45537;DHT22;31262;51.978;5.924;2022-12-18T07:23:32;1.90;59.40
45537;DHT22;31262;51.978;5.924;2022-12-18T07:26:04;1.80;59.30
45537;DHT22;31262;51.978;5.924;2022-12-18T07:28:30;1.90;59.30
45537;DHT22;31262;51.978;5.924;2022-12-18T07:30:56;1.90;59.30
45537;DHT22;31262;51.978;5.924;2022-12-18T07:33:21;1.90;59.40
45537;DHT22;31262;51.978;5.924;2022-12-18T07:35:47;1.90;59.30
45537;DHT22;31262;51.978;5.924;2022-12-18T07:38:12;2.00;59.40
45537;DHT22;31262;51.978;5.924;2022-12-18T07:40:38;2.00;59.60
45537;DHT22;31262;51.978;5.924;2022-12-18T07:43:03;2.20;59.40
45537;DHT22;31262;51.978;5.924;2022-12-18T07:45:32;2.40;59.10
45537;DHT22;31262;51.978;5.924;2022-12-18T07:47:57;2.40;58.50
45537;DHT22;31262;51.978;5.924;2022-12-18T07:50:23;2.40;58.10
45537;DHT22;31262;51.978;5.924;2022-12-18T07:52:49;2.40;58.20
45537;DHT22;31262;51.978;5.924;2022-12-18T07:55:14;2.40;58.20
45537;DHT22;31262;51.978;5.924;2022-12-18T07:57:40;2.30;58.30
45537;DHT22;31262;51.978;5.924;2022-12-18T08:00:06;2.30;58.30
45537;DHT22;31262;51.978;5.924;2022-12-18T08:02:31;2.30;58.40
45537;DHT22;31262;51.978;5.924;2022-12-18T08:04:57;2.30;58.50
45537;DHT22;31262;51.978;5.924;2022-12-18T08:07:23;2.30;58.50
45537;DHT22;31262;51.978;5.924;2022-12-18T08:09:48;2.30;58.50
45537;DHT22;31262;51.978;5.924;2022-12-18T08:12:14;2.30;58.50
45537;DHT22;31262;51.978;5.924;2022-12-18T08:14:39;2.40;58.50
45537;DHT22;31262;51.978;5.924;2022-12-18T08:17:05;2.40;58.50
45537;DHT22;31262;51.978;5.924;2022-12-18T08:19:30;2.40;58.50
45537;DHT22;31262;51.978;5.924;2022-12-18T08:21:56;2.40;58.50
45537;DHT22;31262;51.978;5.924;2022-12-18T08:24:22;2.40;58.50
45537;DHT22;31262;51.978;5.924;2022-12-18T08:26:47;2.40;58.60
45537;DHT22;31262;51.978;5.924;2022-12-18T08:29:13;2.40;58.60
45537;DHT22;31262;51.978;5.924;2022-12-18T08:31:38;2.40;58.50
45537;DHT22;31262;51.978;5.924;2022-12-18T08:34:04;2.50;58.60
45537;DHT22;31262;51.978;5.924;2022-12-18T08:36:29;2.50;58.50
45537;DHT22;31262;51.978;5.924;2022-12-18T08:38:57;2.50;58.50
45537;DHT22;31262;51.978;5.924;2022-12-18T08:41:22;2.50;58.50
45537;DHT22;31262;51.978;5.924;2022-12-18T08:43:48;2.50;58.50
45537;DHT22;31262;51.978;5.924;2022-12-18T08:46:34;2.60;58.60
45537;DHT22;31262;51.978;5.924;2022-12-18T08:49:00;2.50;58.60
45537;DHT22;31262;51.978;5.924;2022-12-18T08:51:25;2.50;58.70
45537;DHT22;31262;51.978;5.924;2022-12-18T08:53:51;2.50;59.40
45537;DHT22;31262;51.978;5.924;2022-12-18T08:56:16;2.60;58.80
45537;DHT22;31262;51.978;5.924;2022-12-18T08:58:42;2.60;58.90
45537;DHT22;31262;51.978;5.924;2022-12-18T09:01:08;2.60;58.80
45537;DHT22;31262;51.978;5.924;2022-12-18T09:03:34;2.60;58.80
45537;DHT22;31262;51.978;5.924;2022-12-18T09:06:00;2.60;58.90
45537;DHT22;31262;51.978;5.924;2022-12-18T09:08:26;2.70;58.90
45537;DHT22;31262;51.978;5.924;2022-12-18T09:10:52;2.70;58.90
45537;DHT22;31262;51.978;5.924;2022-12-18T09:13:17;2.70;58.90
45537;DHT22;31262;51.978;5.924;2022-12-18T09:15:47;2.70;59.00
45537;DHT22;31262;51.978;5.924;2022-12-18T09:18:13;2.80;59.00
45537;DHT22;31262;51.978;5.924;2022-12-18T09:20:39;2.80;59.00
45537;DHT22;31262;51.978;5.924;2022-12-18T09:23:05;2.90;59.10
45537;DHT22;31262;51.978;5.924;2022-12-18T09:25:31;2.90;59.00
45537;DHT22;31262;51.978;5.924;2022-12-18T09:28:10;2.90;59.10
45537;DHT22;31262;51.978;5.924;2022-12-18T09:30:37;2.90;59.10
45537;DHT22;31262;51.978;5.924;2022-12-18T09:33:03;3.10;59.20
45537;DHT22;31262;51.978;5.924;2022-12-18T09:35:28;3.00;59.10
45537;DHT22;31262;51.978;5.924;2022-12-18T09:37:54;3.00;59.00
45537;DHT22;31262;51.978;5.924;2022-12-18T09:40:21;3.10;59.00
45537;DHT22;31262;51.978;5.924;2022-12-18T09:42:48;3.10;58.80
45537;DHT22;31262;51.978;5.924;2022-12-18T09:45:16;3.20;58.60
45537;DHT22;31262;51.978;5.924;2022-12-18T09:47:42;3.20;58.50
45537;DHT22;31262;51.978;5.924;2022-12-18T09:50:24;3.30;58.60
45537;DHT22;31262;51.978;5.924;2022-12-18T09:52:53;3.20;58.60
45537;DHT22;31262;51.978;5.924;2022-12-18T09:57:53;3.30;58.50
45537;DHT22;31262;51.978;5.924;2022-12-18T10:00:23;3.30;58.50
45537;DHT22;31262;51.978;5.924;2022-12-18T10:02:53;3.40;58.40
45537;DHT22;31262;51.978;5.924;2022-12-18T10:05:26;3.40;58.20
45537;DHT22;31262;51.978;5.924;2022-12-18T10:08:02;3.50;58.20
45537;DHT22;31262;51.978;5.924;2022-12-18T10:15:30;3.40;58.10
45537;DHT22;31262;51.978;5.924;2022-12-18T10:20:43;3.50;58.30
45537;DHT22;31262;51.978;5.924;2022-12-18T10:28:25;3.50;58.40
45537;DHT22;31262;51.978;5.924;2022-12-18T10:30:52;3.50;58.40
45537;DHT22;31262;51.978;5.924;2022-12-18T10:33:19;3.50;58.30
45537;DHT22;31262;51.978;5.924;2022-12-18T10:35:45;3.60;58.30
45537;DHT22;31262;51.978;5.924;2022-12-18T10:40:48;3.70;58.20
45537;DHT22;31262;51.978;5.924;2022-12-18T10:43:15;3.70;58.00
45537;DHT22;31262;51.978;5.924;2022-12-18T10:45:41;3.70;57.90
45537;DHT22;31262;51.978;5.924;2022-12-18T10:48:19;3.60;57.90
45537;DHT22;31262;51.978;5.924;2022-12-18T10:50:47;3.60;58.00
45537;DHT22;31262;51.978;5.924;2022-12-18T10:53:13;3.60;58.00
45537;DHT22;31262;51.978;5.924;2022-12-18T10:55:44;3.70;58.00
45537;DHT22;31262;51.978;5.924;2022-12-18T10:58:24;3.70;58.00
45537;DHT22;31262;51.978;5.924;2022-12-18T11:01:04;3.70;57.80
45537;DHT22;31262;51.978;5.924;2022-12-18T11:03:31;3.70;57.70
45537;DHT22;31262;51.978;5.924;2022-12-18T11:11:24;3.70;57.30
45537;DHT22;31262;51.978;5.924;2022-12-18T11:13:52;3.80;57.20
45537;DHT22;31262;51.978;5.924;2022-12-18T11:16:20;3.80;57.20
45537;DHT22;31262;51.978;5.924;2022-12-18T11:18:46;3.80;57.10
45537;DHT22;31262;51.978;5.924;2022-12-18T11:21:12;3.90;56.90
45537;DHT22;31262;51.978;5.924;2022-12-18T11:23:44;3.90;57.00
45537;DHT22;31262;51.978;5.924;2022-12-18T11:26:11;3.80;56.80
45537;DHT22;31262;51.978;5.924;2022-12-18T11:28:37;3.80;56.80
45537;DHT22;31262;51.978;5.924;2022-12-18T11:31:17;3.80;56.90
45537;DHT22;31262;51.978;5.924;2022-12-18T11:34:05;3.80;56.80
45537;DHT22;31262;51.978;5.924;2022-12-18T11:36:31;3.90;56.80
45537;DHT22;31262;51.978;5.924;2022-12-18T11:38:59;3.90;56.80
45537;DHT22;31262;51.978;5.924;2022-12-18T11:41:27;3.90;56.70
45537;DHT22;31262;51.978;5.924;2022-12-18T11:44:14;4.00;56.80
45537;DHT22;31262;51.978;5.924;2022-12-18T11:46:49;4.10;56.70
45537;DHT22;31262;51.978;5.924;2022-12-18T11:49:18;4.10;56.60
45537;DHT22;31262;51.978;5.924;2022-12-18T11:51:50;4.10;56.50
45537;DHT22;31262;51.978;5.924;2022-12-18T11:54:16;4.20;56.50
45537;DHT22;31262;51.978;5.924;2022-12-18T12:04:48;4.10;56.40
45537;DHT22;31262;51.978;5.924;2022-12-18T12:07:18;4.10;56.30
45537;DHT22;31262;51.978;5.924;2022-12-18T12:12:33;4.20;56.30
45537;DHT22;31262;51.978;5.924;2022-12-18T12:17:48;4.10;56.10
45537;DHT22;31262;51.978;5.924;2022-12-18T12:20:20;4.10;56.30
45537;DHT22;31262;51.978;5.924;2022-12-18T12:27:53;4.10;56.40
45537;DHT22;31262;51.978;5.924;2022-12-18T12:30:22;4.10;56.40
45537;DHT22;31262;51.978;5.924;2022-12-18T12:35:35;4.10;56.30
45537;DHT22;31262;51.978;5.924;2022-12-18T12:38:17;4.10;56.30
45537;DHT22;31262;51.978;5.924;2022-12-18T12:41:30;4.10;56.30
45537;DHT22;31262;51.978;5.924;2022-12-18T12:43:54;4.10;56.30
45537;DHT22;31262;51.978;5.924;2022-12-18T12:46:21;4.10;56.20
45537;DHT22;31262;51.978;5.924;2022-12-18T12:48:49;4.00;56.20
45537;DHT22;31262;51.978;5.924;2022-12-18T12:51:17;4.20;56.30
45537;DHT22;31262;51.978;5.924;2022-12-18T12:53:43;4.20;56.10
45537;DHT22;31262;51.978;5.924;2022-12-18T12:56:11;4.20;56.00
45537;DHT22;31262;51.978;5.924;2022-12-18T12:58:56;4.30;56.00
45537;DHT22;31262;51.978;5.924;2022-12-18T13:01:48;4.10;55.90
45537;DHT22;31262;51.978;5.924;2022-12-18T13:06:47;4.10;55.90
45537;DHT22;31262;51.978;5.924;2022-12-18T13:09:15;4.10;56.00
45537;DHT22;31262;51.978;5.924;2022-12-18T13:11:42;4.10;55.80
45537;DHT22;31262;51.978;5.924;2022-12-18T13:14:33;4.20;55.80
45537;DHT22;31262;51.978;5.924;2022-12-18T13:19:39;4.20;55.80
45537;DHT22;31262;51.978;5.924;2022-12-18T13:22:12;4.20;55.80
45537;DHT22;31262;51.978;5.924;2022-12-18T13:24:45;4.20;55.70
45537;DHT22;31262;51.978;5.924;2022-12-18T13:29:55;4.20;55.60
45537;DHT22;31262;51.978;5.924;2022-12-18T13:32:22;4.20;55.50
45537;DHT22;31262;51.978;5.924;2022-12-18T13:34:47;4.20;55.50
45537;DHT22;31262;51.978;5.924;2022-12-18T13:39:57;4.20;55.30
45537;DHT22;31262;51.978;5.924;2022-12-18T13:45:35;4.20;55.10
45537;DHT22;31262;51.978;5.924;2022-12-18T13:48:02;4.20;55.10
45537;DHT22;31262;51.978;5.924;2022-12-18T13:50:28;4.20;55.30
45537;DHT22;31262;51.978;5.924;2022-12-18T13:52:54;4.20;55.30
45537;DHT22;31262;51.978;5.924;2022-12-18T13:55:20;4.20;55.30
45537;DHT22;31262;51.978;5.924;2022-12-18T13:57:46;4.20;55.30
45537;DHT22;31262;51.978;5.924;2022-12-18T14:00:30;4.20;55.20
45537;DHT22;31262;51.978;5.924;2022-12-18T14:02:57;4.20;55.20
45537;DHT22;31262;51.978;5.924;2022-12-18T14:05:29;4.20;55.00
45537;DHT22;31262;51.978;5.924;2022-12-18T14:07:55;4.20;54.90
45537;DHT22;31262;51.978;5.924;2022-12-18T14:10:25;4.20;55.00
45537;DHT22;31262;51.978;5.924;2022-12-18T14:12:51;4.20;55.00
45537;DHT22;31262;51.978;5.924;2022-12-18T14:17:55;4.30;55.00
45537;DHT22;31262;51.978;5.924;2022-12-18T14:20:21;4.30;55.00
45537;DHT22;31262;51.978;5.924;2022-12-18T14:22:47;4.30;55.00
45537;DHT22;31262;51.978;5.924;2022-12-18T14:25:23;4.30;55.00
45537;DHT22;31262;51.978;5.924;2022-12-18T14:27:53;4.30;55.00
45537;DHT22;31262;51.978;5.924;2022-12-18T14:30:32;4.30;55.00
45537;DHT22;31262;51.978;5.924;2022-12-18T14:33:21;4.30;55.00
45537;DHT22;31262;51.978;5.924;2022-12-18T14:36:19;4.30;55.10
45537;DHT22;31262;51.978;5.924;2022-12-18T14:38:37;4.30;55.10
45537;DHT22;31262;51.978;5.924;2022-12-18T14:41:04;4.30;55.00
45537;DHT22;31262;51.978;5.924;2022-12-18T14:43:34;4.30;55.20
45537;DHT22;31262;51.978;5.924;2022-12-18T14:46:00;4.30;55.20
45537;DHT22;31262;51.978;5.924;2022-12-18T14:48:37;4.30;55.20
45537;DHT22;31262;51.978;5.924;2022-12-18T14:51:05;4.30;55.20
45537;DHT22;31262;51.978;5.924;2022-12-18T14:53:34;4.30;55.20
45537;DHT22;31262;51.978;5.924;2022-12-18T14:56:01;4.30;55.20
45537;DHT22;31262;51.978;5.924;2022-12-18T14:58:27;4.30;55.20
45537;DHT22;31262;51.978;5.924;2022-12-18T15:00:53;4.30;55.20
45537;DHT22;31262;51.978;5.924;2022-12-18T15:03:19;4.40;55.10
45537;DHT22;31262;51.978;5.924;2022-12-18T15:05:45;4.30;55.00
45537;DHT22;31262;51.978;5.924;2022-12-18T15:08:26;4.30;55.00
45537;DHT22;31262;51.978;5.924;2022-12-18T15:10:52;4.30;55.10
45537;DHT22;31262;51.978;5.924;2022-12-18T15:13:20;4.30;55.00
45537;DHT22;31262;51.978;5.924;2022-12-18T15:15:47;4.20;55.10
45537;DHT22;31262;51.978;5.924;2022-12-18T15:18:14;4.20;55.30
45537;DHT22;31262;51.978;5.924;2022-12-18T15:25:42;4.10;55.50
45537;DHT22;31262;51.978;5.924;2022-12-18T15:28:15;4.20;55.50
45537;DHT22;31262;51.978;5.924;2022-12-18T15:30:57;4.10;55.50
45537;DHT22;31262;51.978;5.924;2022-12-18T15:33:24;4.20;55.50
45537;DHT22;31262;51.978;5.924;2022-12-18T15:35:57;4.10;55.70
45537;DHT22;31262;51.978;5.924;2022-12-18T15:38:23;4.10;55.90
45537;DHT22;31262;51.978;5.924;2022-12-18T15:40:48;4.00;55.90
45537;DHT22;31262;51.978;5.924;2022-12-18T15:43:14;4.00;56.10
45537;DHT22;31262;51.978;5.924;2022-12-18T15:45:57;4.00;56.10
45537;DHT22;31262;51.978;5.924;2022-12-18T15:48:23;4.00;56.20
45537;DHT22;31262;51.978;5.924;2022-12-18T15:50:52;4.10;56.30
45537;DHT22;31262;51.978;5.924;2022-12-18T15:53:18;4.00;56.20
45537;DHT22;31262;51.978;5.924;2022-12-18T15:55:44;4.00;56.20
45537;DHT22;31262;51.978;5.924;2022-12-18T15:58:28;3.90;56.40
45537;DHT22;31262;51.978;5.924;2022-12-18T16:00:53;3.90;56.50
45537;DHT22;31262;51.978;5.924;2022-12-18T16:03:19;3.80;56.60
45537;DHT22;31262;51.978;5.924;2022-12-18T16:05:45;3.90;56.80
45537;DHT22;31262;51.978;5.924;2022-12-18T16:08:10;3.80;56.90
45537;DHT22;31262;51.978;5.924;2022-12-18T16:10:36;3.80;57.00
45537;DHT22;31262;51.978;5.924;2022-12-18T16:13:01;3.80;57.10
45537;DHT22;31262;51.978;5.924;2022-12-18T16:15:27;3.80;57.20
45537;DHT22;31262;51.978;5.924;2022-12-18T16:17:52;3.80;57.40
45537;DHT22;31262;51.978;5.924;2022-12-18T16:20:19;3.70;57.40
45537;DHT22;31262;51.978;5.924;2022-12-18T16:22:46;3.70;57.30
45537;DHT22;31262;51.978;5.924;2022-12-18T16:27:40;3.70;57.30
45537;DHT22;31262;51.978;5.924;2022-12-18T16:30:06;3.70;57.40
45537;DHT22;31262;51.978;5.924;2022-12-18T16:32:31;3.70;57.40
45537;DHT22;31262;51.978;5.924;2022-12-18T16:34:59;3.60;57.30
45537;DHT22;31262;51.978;5.924;2022-12-18T16:37:25;3.60;57.40
45537;DHT22;31262;51.978;5.924;2022-12-18T16:39:52;3.70;57.50
45537;DHT22;31262;51.978;5.924;2022-12-18T16:42:18;3.60;57.40
45537;DHT22;31262;51.978;5.924;2022-12-18T16:44:44;3.60;57.40
45537;DHT22;31262;51.978;5.924;2022-12-18T16:47:10;3.60;57.50
45537;DHT22;31262;51.978;5.924;2022-12-18T16:49:36;3.70;57.50
45537;DHT22;31262;51.978;5.924;2022-12-18T16:52:02;3.60;57.60
45537;DHT22;31262;51.978;5.924;2022-12-18T16:54:28;3.70;57.60
45537;DHT22;31262;51.978;5.924;2022-12-18T16:56:57;3.50;57.60
45537;DHT22;31262;51.978;5.924;2022-12-18T16:59:23;3.70;57.70
45537;DHT22;31262;51.978;5.924;2022-12-18T17:01:50;3.60;57.70
45537;DHT22;31262;51.978;5.924;2022-12-18T17:04:16;3.60;57.70
45537;DHT22;31262;51.978;5.924;2022-12-18T17:06:42;3.60;57.80
45537;DHT22;31262;51.978;5.924;2022-12-18T17:09:12;3.60;57.80
45537;DHT22;31262;51.978;5.924;2022-12-18T17:11:41;3.60;58.00
45537;DHT22;31262;51.978;5.924;2022-12-18T17:14:08;3.60;58.00
45537;DHT22;31262;51.978;5.924;2022-12-18T17:16:34;3.70;58.00
45537;DHT22;31262;51.978;5.924;2022-12-18T17:18:59;3.60;58.20